TimeMST,TemperatureF,Dew PointF,Humidity,Sea Level PressureIn,VisibilityMPH,Wind Direction,Wind SpeedMPH,Gust SpeedMPH,PrecipitationIn,Events,Conditions,WindDirDegrees,DateUTC
12:53 AM,39.0,30.9,73,29.98,10.0,Calm,Calm,-,N/A,,Overcast,0,2012-11-18 07:53:00
1:53 AM,37.9,30.0,73,29.94,10.0,SSW,12.7,-,N/A,,Mostly Cloudy,210,2012-11-18 08:53:00
2:53 AM,39.0,28.9,67,29.90,10.0,SSW,12.7,19.6,N/A,,Scattered Clouds,210,2012-11-18 09:53:00
3:53 AM,39.0,28.9,67,29.89,10.0,WSW,11.5,21.9,N/A,,Clear,240,2012-11-18 10:53:00
4:53 AM,39.0,30.0,70,29.90,10.0,SSW,11.5,24.2,N/A,,Clear,200,2012-11-18 11:53:00
5:53 AM,37.9,30.0,73,29.91,10.0,WSW,17.3,24.2,N/A,,Clear,240,2012-11-18 12:53:00
6:53 AM,39.0,30.0,70,29.90,10.0,SW,20.7,29.9,N/A,,Clear,230,2012-11-18 13:53:00
7:53 AM,39.0,30.0,70,29.94,10.0,SW,13.8,20.7,N/A,,Clear,220,2012-11-18 14:53:00
8:53 AM,42.1,32.0,67,29.94,10.0,SW,18.4,26.5,N/A,,Clear,220,2012-11-18 15:53:00
9:53 AM,43.0,32.0,65,29.96,10.0,SSW,20.7,27.6,N/A,,Overcast,210,2012-11-18 16:53:00
10:53 AM,46.0,32.0,58,29.95,10.0,SW,21.9,29.9,N/A,,Partly Cloudy,220,2012-11-18 17:53:00
11:53 AM,46.9,30.9,54,29.92,10.0,WSW,21.9,32.2,N/A,,Scattered Clouds,240,2012-11-18 18:53:00
12:53 PM,48.9,30.9,50,29.91,10.0,WSW,19.6,29.9,N/A,,Partly Cloudy,240,2012-11-18 19:53:00
1:53 PM,44.1,37.0,76,29.94,10.0,SSW,9.2,-,0.00,,Scattered Clouds,200,2012-11-18 20:53:00
2:32 PM,39.2,35.6,87,30.04,4.0,SSW,21.9,27.6,0.01,Rain,Light Rain,210,2012-11-18 21:32:00
2:53 PM,39.9,35.1,83,29.96,9.0,SW,16.1,28.8,0.03,Rain,Light Rain,230,2012-11-18 21:53:00
3:11 PM,42.8,35.6,76,30.02,10.0,WSW,9.2,-,0.00,,Overcast,250,2012-11-18 22:11:00
3:53 PM,41.0,36.0,82,29.98,10.0,WSW,4.6,-,0.00,,Scattered Clouds,240,2012-11-18 22:53:00
4:53 PM,39.0,34.0,82,30.01,10.0,SW,6.9,-,0.00,,Scattered Clouds,220,2012-11-18 23:53:00
5:53 PM,39.9,34.0,79,30.03,10.0,WNW,4.6,-,N/A,,Overcast,290,2012-11-19 00:53:00
6:53 PM,37.9,33.1,83,30.06,10.0,WSW,10.4,-,0.00,,Overcast,250,2012-11-19 01:53:00
7:50 PM,39.2,33.8,81,30.12,10.0,WSW,8.1,-,0.00,Rain,Light Rain,250,2012-11-19 02:50:00
7:53 PM,39.0,33.1,79,30.08,10.0,SW,8.1,-,0.00,Rain,Light Rain,220,2012-11-19 02:53:00
8:53 PM,36.0,33.1,89,30.09,10.0,WSW,11.5,-,0.02,Rain,Light Rain,250,2012-11-19 03:53:00
9:07 PM,35.6,33.8,93,30.14,10.0,WSW,11.5,-,0.00,,Overcast,250,2012-11-19 04:07:00
10:53 PM,36.0,34.0,93,30.09,10.0,SW,9.2,-,0.00,,Overcast,230,2012-11-19 05:53:00
11:53 PM,36.0,33.1,89,30.10,10.0,WSW,10.4,-,0.00,,Overcast,240,2012-11-19 06:53:00